createdAt,value
2017-12-13T05:00:42.415Z,0
2017-12-13T05:01:07.910Z,0
2017-12-13T05:01:33.377Z,0
2017-12-13T05:01:58.847Z,0
2017-12-13T05:02:24.396Z,0
2017-12-13T05:02:49.924Z,0
2017-12-13T05:03:15.425Z,0
2017-12-13T05:03:40.933Z,0
2017-12-13T05:04:06.487Z,0
2017-12-13T05:04:31.921Z,0
2017-12-13T05:04:57.526Z,0
2017-12-13T05:05:23.001Z,0
2017-12-13T05:05:48.509Z,0
2017-12-13T05:06:14.033Z,0
2017-12-13T05:06:39.500Z,0
2017-12-13T05:07:04.930Z,0
2017-12-13T05:07:30.455Z,0
2017-12-13T05:07:55.978Z,0
2017-12-13T05:08:21.476Z,0
2017-12-13T05:08:46.981Z,0
2017-12-13T05:09:12.471Z,0
2017-12-13T05:09:37.955Z,0
2017-12-13T05:10:03.409Z,0
2017-12-13T05:10:28.929Z,0
2017-12-13T05:10:54.403Z,0
2017-12-13T05:11:19.920Z,0
2017-12-13T05:11:45.461Z,0
2017-12-13T05:12:10.948Z,0
2017-12-13T05:12:36.473Z,0
2017-12-13T05:13:01.990Z,0
2017-12-13T05:13:27.439Z,0
2017-12-13T05:13:52.922Z,0
2017-12-13T05:14:18.419Z,0
2017-12-13T05:14:43.925Z,0
2017-12-13T05:15:09.403Z,0
2017-12-13T05:15:34.902Z,0
2017-12-13T05:16:00.383Z,0
2017-12-13T05:16:25.877Z,0
2017-12-13T05:16:51.335Z,0
2017-12-13T05:17:16.800Z,0
2017-12-13T05:17:42.292Z,0
2017-12-13T05:18:07.771Z,0
2017-12-13T05:18:33.261Z,0
2017-12-13T05:18:58.768Z,0
2017-12-13T05:19:24.246Z,0
2017-12-13T05:20:38.040Z,0
2017-12-13T05:21:03.525Z,0
2017-12-13T05:21:29.006Z,0
2017-12-13T05:21:54.496Z,0
2017-12-13T05:22:20.013Z,0
2017-12-13T05:22:45.486Z,0
2017-12-13T05:23:10.980Z,0
2017-12-13T05:23:36.517Z,0
2017-12-13T05:24:01.968Z,0
2017-12-13T05:24:27.449Z,0
2017-12-13T05:24:52.894Z,0
2017-12-13T05:25:18.370Z,0
2017-12-13T05:25:43.869Z,0
2017-12-13T05:26:09.393Z,0
2017-12-13T05:26:34.887Z,0
2017-12-13T05:27:00.347Z,0
2017-12-13T05:27:25.851Z,0
2017-12-13T05:27:51.363Z,0
2017-12-13T05:28:16.790Z,0
2017-12-13T05:28:42.298Z,0
2017-12-13T05:29:07.760Z,0
2017-12-13T05:29:33.252Z,0
2017-12-13T05:29:58.746Z,0
2017-12-13T05:30:24.237Z,0
2017-12-13T05:30:49.745Z,0
2017-12-13T05:31:15.246Z,0
2017-12-13T05:31:40.743Z,0
2017-12-13T05:32:06.223Z,0
2017-12-13T05:32:31.734Z,0
2017-12-13T05:32:57.174Z,0
2017-12-13T05:33:22.689Z,0
2017-12-13T05:33:48.116Z,0
2017-12-13T05:34:13.603Z,0
2017-12-13T05:34:39.097Z,0
2017-12-13T05:35:04.532Z,0
2017-12-13T05:36:18.378Z,0
2017-12-13T05:36:43.875Z,0
2017-12-13T05:37:09.429Z,0
2017-12-13T05:37:34.952Z,0
2017-12-13T05:38:00.504Z,0
2017-12-13T05:38:25.983Z,0
2017-12-13T05:38:51.494Z,0
2017-12-13T05:39:16.985Z,0
2017-12-13T05:39:42.478Z,0
2017-12-13T05:40:08.028Z,0
2017-12-13T05:40:33.482Z,0
2017-12-13T05:40:58.961Z,0
2017-12-13T05:41:24.462Z,0
2017-12-13T05:41:49.924Z,0
2017-12-13T05:42:15.448Z,0
2017-12-13T05:42:41.005Z,0
2017-12-13T05:43:06.507Z,0
2017-12-13T05:43:31.971Z,0
2017-12-13T05:43:57.433Z,0
2017-12-13T05:44:22.944Z,0
2017-12-13T05:44:48.445Z,0
2017-12-13T05:45:13.946Z,0
2017-12-13T05:45:39.433Z,0
2017-12-13T05:46:05.008Z,0
2017-12-13T05:46:30.530Z,0
2017-12-13T05:46:56.040Z,0
2017-12-13T05:47:21.546Z,0
2017-12-13T05:47:47.009Z,0
2017-12-13T05:48:12.483Z,0
2017-12-13T05:48:37.974Z,0
2017-12-13T05:50:01.977Z,0
2017-12-13T05:50:27.457Z,0
2017-12-13T05:50:52.952Z,0
2017-12-13T05:51:18.447Z,0
2017-12-13T05:51:43.923Z,0
2017-12-13T05:52:09.420Z,0
2017-12-13T05:52:34.936Z,0
2017-12-13T05:53:48.767Z,0
2017-12-13T05:54:14.286Z,0
2017-12-13T05:54:39.771Z,0
2017-12-13T05:55:05.285Z,0
2017-12-13T05:55:30.837Z,0
2017-12-13T05:55:56.354Z,0
2017-12-13T05:56:21.799Z,0
2017-12-13T05:56:47.318Z,0
2017-12-13T05:57:12.804Z,0
2017-12-13T05:57:38.306Z,0
2017-12-13T05:58:03.777Z,0
2017-12-13T05:58:29.292Z,0
2017-12-13T05:58:54.772Z,0
2017-12-13T06:00:03.496Z,0
2017-12-13T06:00:28.988Z,0
2017-12-13T06:01:32.591Z,0
2017-12-13T06:01:58.098Z,0
2017-12-13T06:02:23.564Z,0
2017-12-13T06:03:42.453Z,0
2017-12-13T06:04:07.944Z,0
2017-12-13T06:04:33.416Z,0
2017-12-13T06:04:58.899Z,0
2017-12-13T06:05:24.382Z,0
2017-12-13T06:05:49.905Z,0
2017-12-13T06:06:15.396Z,0
2017-12-13T06:06:40.848Z,0
2017-12-13T06:07:06.359Z,0
2017-12-13T06:07:31.843Z,0
2017-12-13T06:07:57.300Z,0
2017-12-13T06:08:22.834Z,0
2017-12-13T06:08:48.271Z,0
2017-12-13T06:09:51.900Z,0
2017-12-13T06:10:17.404Z,0
2017-12-13T06:10:42.877Z,0
2017-12-13T06:11:08.356Z,0
2017-12-13T06:12:17.057Z,0
2017-12-13T06:12:42.551Z,0
2017-12-13T06:13:08.037Z,0
2017-12-13T06:14:21.803Z,0
2017-12-13T06:14:47.298Z,0
2017-12-13T06:15:12.794Z,0
2017-12-13T06:15:38.333Z,0
2017-12-13T06:16:03.890Z,0
2017-12-13T06:16:29.369Z,0
2017-12-13T06:16:54.862Z,0
2017-12-13T06:17:20.325Z,0
2017-12-13T06:17:45.824Z,0
2017-12-13T06:18:11.300Z,0
2017-12-13T06:18:36.791Z,0
2017-12-13T06:19:02.275Z,0
2017-12-13T06:19:27.783Z,0
2017-12-13T06:19:53.296Z,0
2017-12-13T06:20:18.792Z,0
2017-12-13T06:20:44.273Z,0
2017-12-13T06:21:09.764Z,0
2017-12-13T06:21:35.264Z,0
2017-12-13T06:22:00.762Z,0
2017-12-13T06:22:26.272Z,0
2017-12-13T06:22:51.772Z,0
2017-12-13T06:23:17.250Z,0
2017-12-13T06:23:42.703Z,0
2017-12-13T06:24:08.242Z,0
2017-12-13T06:24:33.693Z,0
2017-12-13T06:24:59.194Z,0
2017-12-13T06:25:24.699Z,0
2017-12-13T06:25:50.202Z,0
2017-12-13T06:26:15.751Z,0
2017-12-13T06:26:41.296Z,0
2017-12-13T06:27:06.792Z,0
2017-12-13T06:27:32.260Z,0
2017-12-13T06:27:57.738Z,0
2017-12-13T06:28:23.210Z,0
2017-12-13T06:28:48.700Z,0
2017-12-13T06:29:14.196Z,0
2017-12-13T06:29:39.667Z,0
2017-12-13T06:30:05.146Z,0
2017-12-13T06:30:30.625Z,0
2017-12-13T06:30:56.164Z,0
2017-12-13T06:31:21.655Z,0
2017-12-13T06:31:47.130Z,0
2017-12-13T06:32:12.612Z,0
2017-12-13T06:32:38.073Z,0
2017-12-13T06:33:03.606Z,0
2017-12-13T06:33:29.105Z,0
2017-12-13T06:33:54.561Z,0
2017-12-13T06:34:20.104Z,0
2017-12-13T06:34:45.593Z,0
2017-12-13T06:35:11.082Z,0
2017-12-13T06:35:36.580Z,0
2017-12-13T06:36:02.082Z,0
2017-12-13T06:36:27.599Z,0
2017-12-13T06:36:53.111Z,0
2017-12-13T06:37:18.571Z,0
2017-12-13T06:37:44.039Z,0
2017-12-13T06:38:09.457Z,0
2017-12-13T06:38:34.931Z,0
2017-12-13T06:39:00.454Z,0
2017-12-13T06:40:04.066Z,0
2017-12-13T06:40:29.549Z,0
2017-12-13T06:40:55.056Z,0
2017-12-13T06:41:20.508Z,0
2017-12-13T06:41:46.006Z,0
2017-12-13T06:42:11.524Z,0
2017-12-13T06:42:37.007Z,0
2017-12-13T06:43:02.537Z,0
2017-12-13T06:43:28.018Z,0
2017-12-13T06:43:53.545Z,0
2017-12-13T06:44:19.038Z,0
2017-12-13T06:44:44.531Z,0
2017-12-13T06:45:09.986Z,0
2017-12-13T06:45:35.477Z,0
2017-12-13T06:46:00.930Z,0
2017-12-13T06:46:26.415Z,0
2017-12-13T06:46:51.914Z,0
2017-12-13T06:47:17.379Z,0
2017-12-13T06:47:42.902Z,0
2017-12-13T06:48:08.420Z,0
2017-12-13T06:48:33.919Z,0
2017-12-13T06:48:59.433Z,0
2017-12-13T06:49:24.934Z,0
2017-12-13T06:49:50.403Z,0
2017-12-13T06:50:15.953Z,0
2017-12-13T06:50:41.508Z,4
2017-12-13T06:51:06.927Z,4
2017-12-13T06:51:32.451Z,4
2017-12-13T06:51:57.939Z,4
2017-12-13T06:52:23.460Z,4
2017-12-13T06:52:48.957Z,4
2017-12-13T06:53:14.449Z,0
2017-12-13T06:53:39.938Z,0
2017-12-13T06:54:05.454Z,0
2017-12-13T06:54:30.948Z,0
2017-12-13T06:54:56.455Z,4
2017-12-13T06:55:22.075Z,4
2017-12-13T06:55:47.808Z,4
2017-12-13T06:56:13.301Z,4
2017-12-13T06:56:38.723Z,4
2017-12-13T06:57:04.226Z,4
2017-12-13T06:57:29.733Z,4
2017-12-13T06:57:55.271Z,4
2017-12-13T06:58:20.739Z,8
2017-12-13T06:58:46.193Z,4
2017-12-13T06:59:11.671Z,4
2017-12-13T06:59:37.153Z,4
2017-12-13T07:00:02.623Z,8
2017-12-13T07:00:28.117Z,8
2017-12-13T07:00:53.598Z,8
2017-12-13T07:01:19.074Z,8
2017-12-13T07:01:44.578Z,8
2017-12-13T07:02:53.288Z,8
2017-12-13T07:03:18.820Z,8
2017-12-13T07:03:44.346Z,12
2017-12-13T07:04:52.974Z,8
2017-12-13T07:05:18.471Z,12
2017-12-13T07:05:43.947Z,12
2017-12-13T07:06:09.449Z,12
2017-12-13T07:06:34.984Z,12
2017-12-13T07:07:00.535Z,16
2017-12-13T07:07:26.029Z,16
2017-12-13T07:07:51.528Z,20
2017-12-13T07:08:17.050Z,20
2017-12-13T07:08:42.581Z,20
2017-12-13T07:09:08.090Z,20
2017-12-13T07:09:33.607Z,24
2017-12-13T07:09:59.141Z,24
2017-12-13T07:11:07.946Z,24
2017-12-13T07:11:33.416Z,28
2017-12-13T07:11:59.016Z,28
2017-12-13T07:12:24.515Z,32
2017-12-13T07:13:43.484Z,36
2017-12-13T07:14:08.952Z,36
2017-12-13T07:14:34.450Z,36
2017-12-13T07:14:59.928Z,40
2017-12-13T07:15:25.410Z,44
2017-12-13T07:15:50.919Z,44
2017-12-13T07:16:16.391Z,44
2017-12-13T07:16:41.918Z,48
2017-12-13T07:17:07.396Z,48
2017-12-13T07:17:32.895Z,48
2017-12-13T07:17:58.386Z,52
2017-12-13T07:19:17.399Z,56
2017-12-13T07:19:42.862Z,56
2017-12-13T07:20:08.370Z,60
2017-12-13T07:20:33.889Z,64
2017-12-13T07:20:59.347Z,64
2017-12-13T07:21:24.851Z,68
2017-12-13T07:21:50.339Z,68
2017-12-13T07:22:15.805Z,72
2017-12-13T07:22:41.308Z,76
2017-12-13T07:23:06.806Z,76
2017-12-13T07:23:32.399Z,80
2017-12-13T07:23:57.835Z,80
2017-12-13T07:24:23.312Z,84
2017-12-13T07:24:48.854Z,84
2017-12-13T07:25:14.333Z,84
2017-12-13T07:25:39.799Z,88
2017-12-13T07:26:05.298Z,92
2017-12-13T07:26:30.798Z,96
2017-12-13T07:26:56.287Z,100
2017-12-13T07:27:21.743Z,104
2017-12-13T07:28:25.375Z,120
2017-12-13T07:28:50.884Z,124
2017-12-13T07:29:16.366Z,128
2017-12-13T07:29:41.874Z,136
2017-12-13T07:30:07.358Z,144
2017-12-13T07:30:32.848Z,148
2017-12-13T07:30:58.339Z,160
2017-12-13T07:31:23.815Z,168
2017-12-13T07:32:47.349Z,196
2017-12-13T07:33:12.830Z,208
2017-12-13T07:33:38.288Z,212
2017-12-13T07:34:03.765Z,224
2017-12-13T07:34:29.248Z,232
2017-12-13T07:34:54.748Z,236
2017-12-13T07:35:20.226Z,244
2017-12-13T07:35:45.728Z,252
2017-12-13T07:36:11.223Z,264
2017-12-13T07:36:36.697Z,268
2017-12-13T07:37:02.205Z,276
2017-12-13T07:37:27.676Z,276
2017-12-13T07:37:53.142Z,284
2017-12-13T07:38:18.648Z,288
2017-12-13T07:38:44.146Z,288
2017-12-13T07:39:09.640Z,292
2017-12-13T07:39:35.134Z,292
2017-12-13T07:40:00.615Z,292
2017-12-13T07:40:26.106Z,288
2017-12-13T07:40:51.620Z,288
2017-12-13T07:42:10.576Z,288
2017-12-13T07:42:36.083Z,288
2017-12-13T07:43:01.584Z,292
2017-12-13T07:44:10.232Z,300
2017-12-13T07:44:35.747Z,304
2017-12-13T07:45:01.308Z,308
2017-12-13T07:45:26.786Z,312
2017-12-13T07:45:52.267Z,312
2017-12-13T07:46:17.814Z,312
2017-12-13T07:46:43.288Z,312
2017-12-13T07:48:02.245Z,288
2017-12-13T07:48:27.724Z,276
2017-12-13T07:48:53.178Z,256
2017-12-13T07:49:18.640Z,236
2017-12-13T07:49:44.155Z,224
2017-12-13T07:51:03.111Z,180
2017-12-13T07:51:28.592Z,176
2017-12-13T07:51:54.109Z,168
2017-12-13T07:52:19.632Z,164
2017-12-13T07:52:45.118Z,168
2017-12-13T07:53:10.598Z,172
2017-12-13T07:53:36.142Z,176
2017-12-13T07:54:01.654Z,184
2017-12-13T07:54:27.190Z,196
2017-12-13T07:54:52.682Z,208
2017-12-13T07:55:18.205Z,224
2017-12-13T07:55:43.687Z,240
2017-12-13T07:56:09.154Z,260
2017-12-13T07:56:34.660Z,280
2017-12-13T07:57:00.144Z,304
2017-12-13T07:57:25.660Z,332
2017-12-13T07:57:51.162Z,356
2017-12-13T07:58:16.648Z,380
2017-12-13T07:58:42.115Z,400
2017-12-13T07:59:07.615Z,420
2017-12-13T07:59:33.158Z,436
2017-12-13T07:59:58.623Z,452
2017-12-13T08:00:24.150Z,468
2017-12-13T08:00:49.642Z,484
2017-12-13T08:01:15.130Z,500
2017-12-13T08:01:40.616Z,516
2017-12-13T08:02:06.078Z,536
2017-12-13T08:02:31.585Z,556
2017-12-13T08:03:45.424Z,584
2017-12-13T08:04:10.898Z,604
2017-12-13T08:04:36.376Z,624
2017-12-13T08:05:01.871Z,620
2017-12-13T08:05:27.363Z,624
2017-12-13T08:06:46.281Z,680
2017-12-13T08:07:11.740Z,692
2017-12-13T08:07:37.234Z,708
2017-12-13T08:08:02.736Z,728
2017-12-13T08:08:28.306Z,760
2017-12-13T08:08:53.790Z,792
2017-12-13T08:09:19.301Z,816
2017-12-13T08:09:44.786Z,840
2017-12-13T08:10:10.282Z,856
2017-12-13T08:10:35.844Z,872
2017-12-13T08:11:01.332Z,896
2017-12-13T08:11:26.813Z,916
2017-12-13T08:11:52.265Z,928
2017-12-13T08:13:16.235Z,920
2017-12-13T08:13:41.705Z,932
2017-12-13T08:14:07.158Z,944
2017-12-13T08:14:32.653Z,956
2017-12-13T08:14:58.168Z,968
2017-12-13T08:15:23.663Z,980
2017-12-13T08:15:49.189Z,1008
2017-12-13T08:16:14.675Z,1028
2017-12-13T08:16:40.160Z,1056
2017-12-13T08:17:05.670Z,1112
2017-12-13T08:17:31.184Z,1176
2017-12-13T08:17:56.761Z,1228
2017-12-13T08:18:22.288Z,1308
2017-12-13T08:18:47.763Z,1348
2017-12-13T08:19:13.334Z,1472
2017-12-13T08:19:38.791Z,1552
2017-12-13T08:20:04.269Z,1496
2017-12-13T08:20:29.773Z,1460
2017-12-13T08:20:55.255Z,1496
2017-12-13T08:21:20.744Z,1484
2017-12-13T08:21:46.216Z,1356
2017-12-13T08:22:11.726Z,1344
2017-12-13T08:22:37.186Z,1396
2017-12-13T08:23:02.718Z,1304
2017-12-13T08:23:28.188Z,1260
2017-12-13T08:23:53.705Z,1240
2017-12-13T08:24:19.163Z,1188
2017-12-13T08:24:44.646Z,1176
2017-12-13T08:25:10.134Z,1260
2017-12-13T08:25:35.610Z,1272
2017-12-13T08:26:01.155Z,1296
2017-12-13T08:26:26.572Z,1324
2017-12-13T08:26:52.068Z,1384
2017-12-13T08:27:17.555Z,1236
2017-12-13T08:27:43.027Z,1100
2017-12-13T08:28:08.570Z,1164
2017-12-13T08:28:34.067Z,1160
2017-12-13T08:28:59.533Z,1076
2017-12-13T08:29:25.035Z,1004
2017-12-13T08:29:50.525Z,1020
2017-12-13T08:30:16.018Z,1072
2017-12-13T08:30:41.506Z,1088
2017-12-13T08:31:07.095Z,1040
2017-12-13T08:31:32.554Z,964
2017-12-13T08:31:58.016Z,936
2017-12-13T08:32:23.577Z,936
2017-12-13T08:32:49.124Z,916
2017-12-13T08:33:14.629Z,900
2017-12-13T08:33:40.125Z,884
2017-12-13T08:34:05.590Z,880
2017-12-13T08:34:31.102Z,864
2017-12-13T08:34:56.581Z,860
2017-12-13T08:35:22.028Z,868
2017-12-13T08:35:47.503Z,852
2017-12-13T08:36:12.950Z,820
2017-12-13T08:37:16.567Z,756
2017-12-13T08:37:42.073Z,748
2017-12-13T08:38:07.574Z,748
2017-12-13T08:38:33.055Z,760
2017-12-13T08:38:58.492Z,768
2017-12-13T08:39:23.952Z,768
2017-12-13T08:39:49.430Z,760
2017-12-13T08:40:14.921Z,752
2017-12-13T08:40:40.382Z,736
2017-12-13T08:41:05.885Z,720
2017-12-13T08:41:31.363Z,700
2017-12-13T08:41:56.881Z,696
2017-12-13T08:42:22.398Z,700
2017-12-13T08:42:47.889Z,708
2017-12-13T08:43:13.384Z,720
2017-12-13T08:43:38.913Z,716
2017-12-13T08:44:04.401Z,704
2017-12-13T08:44:30.409Z,692
2017-12-13T08:44:55.940Z,660
2017-12-13T08:45:21.450Z,632
2017-12-13T08:45:46.972Z,620
2017-12-13T08:46:12.470Z,628
2017-12-13T08:46:37.989Z,636
2017-12-13T08:47:03.500Z,640
2017-12-13T08:47:29.040Z,640
2017-12-13T08:47:54.574Z,640
2017-12-13T08:48:20.028Z,644
2017-12-13T08:48:45.524Z,664
2017-12-13T08:49:11.002Z,696
2017-12-13T08:49:36.517Z,744
2017-12-13T08:50:02.000Z,792
2017-12-13T08:50:27.510Z,836
2017-12-13T08:50:53.001Z,880
2017-12-13T08:51:18.480Z,916
2017-12-13T08:51:44.008Z,944
2017-12-13T08:52:09.521Z,972
2017-12-13T08:52:35.007Z,1004
2017-12-13T08:53:00.578Z,1028
2017-12-13T08:53:26.066Z,1040
2017-12-13T08:54:50.049Z,1056
2017-12-13T08:55:15.612Z,1064
2017-12-13T08:55:41.068Z,1060
2017-12-13T08:56:06.533Z,1064
2017-12-13T08:56:31.993Z,1064
2017-12-13T08:56:57.489Z,1072
2017-12-13T08:57:23.020Z,1096
2017-12-13T08:57:48.464Z,1132
2017-12-13T08:58:13.967Z,1176
2017-12-13T08:58:39.433Z,1208
2017-12-13T08:59:04.912Z,1236
2017-12-13T08:59:30.379Z,1248
2017-12-13T08:59:55.864Z,1268
2017-12-13T09:00:21.374Z,1292
2017-12-13T09:00:46.825Z,1312
2017-12-13T09:01:12.258Z,1332
2017-12-13T09:01:37.698Z,1352
2017-12-13T09:03:35.650Z,1344
2017-12-13T09:04:01.126Z,1308
2017-12-13T09:04:26.770Z,1268
2017-12-13T09:04:52.269Z,1212
2017-12-13T09:05:17.842Z,1160
2017-12-13T09:05:43.191Z,1132
2017-12-13T09:06:08.663Z,1136
2017-12-13T09:06:34.127Z,1132
2017-12-13T09:06:59.579Z,1148
2017-12-13T09:07:25.026Z,1168
2017-12-13T09:07:50.528Z,1188
2017-12-13T09:08:15.978Z,1188
2017-12-13T09:08:41.430Z,1180
2017-12-13T09:09:06.890Z,1160
2017-12-13T09:09:32.350Z,1140
2017-12-13T09:09:57.824Z,1112
2017-12-13T09:10:23.323Z,1104
2017-12-13T09:10:48.767Z,1096
2017-12-13T09:12:07.667Z,1056
2017-12-13T09:12:33.120Z,1052
2017-12-13T09:12:58.600Z,1052
2017-12-13T09:13:24.063Z,1068
2017-12-13T09:13:49.533Z,1076
2017-12-13T09:14:14.987Z,1084
2017-12-13T09:14:40.427Z,1100
2017-12-13T09:15:05.873Z,1116
2017-12-13T09:15:31.351Z,1132
2017-12-13T09:15:56.789Z,1132
2017-12-13T09:16:22.298Z,1104
2017-12-13T09:16:47.751Z,1100
2017-12-13T09:17:13.212Z,1092
2017-12-13T09:17:38.663Z,1092
2017-12-13T09:18:04.146Z,1084
2017-12-13T09:18:29.612Z,1116
2017-12-13T09:18:55.084Z,1072
2017-12-13T09:19:20.570Z,1060
2017-12-13T09:19:46.063Z,1068
2017-12-13T09:20:11.545Z,1044
2017-12-13T09:20:37.036Z,984
2017-12-13T09:21:02.476Z,940
2017-12-13T09:21:27.949Z,916
2017-12-13T09:21:53.405Z,876
2017-12-13T09:22:18.909Z,896
2017-12-13T09:22:44.382Z,920
2017-12-13T09:23:09.822Z,960
2017-12-13T09:23:35.288Z,1044
2017-12-13T09:24:00.755Z,1136
2017-12-13T09:24:26.233Z,1184
2017-12-13T09:24:51.677Z,1308
2017-12-13T09:25:17.161Z,1432
2017-12-13T09:25:42.671Z,1584
2017-12-13T09:26:08.093Z,1708
2017-12-13T09:26:33.557Z,1832
2017-12-13T09:26:58.999Z,1940
2017-12-13T09:27:24.637Z,2048
2017-12-13T09:27:50.096Z,2164
2017-12-13T09:28:15.614Z,2268
2017-12-13T09:28:41.045Z,2292
2017-12-13T09:29:06.518Z,2324
2017-12-13T09:29:32.050Z,2196
2017-12-13T09:29:57.495Z,2208
2017-12-13T09:30:23.077Z,2176
2017-12-13T09:30:48.614Z,2140
2017-12-13T09:31:14.105Z,2108
2017-12-13T09:31:39.545Z,1972
2017-12-13T09:32:05.033Z,1924
2017-12-13T09:32:30.551Z,2136
2017-12-13T09:32:55.993Z,2336
2017-12-13T09:33:21.460Z,2396
2017-12-13T09:33:46.967Z,2328
2017-12-13T09:34:12.381Z,2436
2017-12-13T09:34:37.852Z,2208
2017-12-13T09:35:03.328Z,2300
2017-12-13T09:35:28.784Z,2376
2017-12-13T09:35:54.233Z,2352
2017-12-13T09:36:19.662Z,2348
2017-12-13T09:36:45.115Z,2344
2017-12-13T09:37:10.600Z,2252
2017-12-13T09:37:36.046Z,2304
2017-12-13T09:38:01.507Z,2284
2017-12-13T09:38:26.964Z,2028
2017-12-13T09:38:52.408Z,2032
2017-12-13T09:39:17.875Z,2176
2017-12-13T09:39:43.349Z,2440
2017-12-13T09:40:08.815Z,2572
2017-12-13T09:40:34.304Z,2532
2017-12-13T09:40:59.802Z,2392
2017-12-13T09:41:25.284Z,2136
2017-12-13T09:41:50.703Z,2124
2017-12-13T09:42:16.182Z,2248
2017-12-13T09:42:41.627Z,2268
2017-12-13T09:43:07.090Z,2272
2017-12-13T09:43:32.544Z,2344
2017-12-13T09:43:58.000Z,2400
2017-12-13T09:44:23.485Z,2440
2017-12-13T09:44:48.929Z,2384
2017-12-13T09:45:14.430Z,2224
2017-12-13T09:46:18.045Z,2136
2017-12-13T09:46:43.524Z,2272
2017-12-13T09:47:09.002Z,2184
2017-12-13T09:47:34.437Z,2004
2017-12-13T09:47:59.911Z,1952
2017-12-13T09:48:25.380Z,1948
2017-12-13T09:48:50.866Z,2128
2017-12-13T09:49:16.364Z,2324
2017-12-13T09:49:41.775Z,2088
2017-12-13T09:50:07.262Z,1988
2017-12-13T09:50:32.788Z,2300
2017-12-13T09:50:58.228Z,2208
2017-12-13T09:51:23.683Z,2332
2017-12-13T09:51:49.143Z,2444
2017-12-13T09:52:14.682Z,2688
2017-12-13T09:52:40.158Z,2736
2017-12-13T09:53:05.617Z,2648
2017-12-13T09:53:31.121Z,2640
2017-12-13T09:53:56.619Z,2656
2017-12-13T09:54:22.109Z,2668
2017-12-13T09:54:47.586Z,2708
2017-12-13T09:55:13.082Z,2664
2017-12-13T09:55:38.602Z,2728
2017-12-13T09:56:04.070Z,2760
2017-12-13T09:56:29.575Z,2688
2017-12-13T09:56:55.078Z,2628
2017-12-13T09:57:20.581Z,2532
2017-12-13T09:57:46.074Z,2436
2017-12-13T09:58:11.591Z,2360
2017-12-13T09:58:37.099Z,2352
2017-12-13T09:59:02.568Z,2584
2017-12-13T09:59:28.045Z,2664
2017-12-13T10:00:31.665Z,2440
2017-12-13T10:00:57.161Z,2468
2017-12-13T10:01:22.619Z,2500
2017-12-13T10:01:48.113Z,2464
2017-12-13T10:02:13.583Z,2592
2017-12-13T10:02:39.115Z,2592
2017-12-13T10:03:04.614Z,2516
2017-12-13T10:03:30.176Z,2508
2017-12-13T10:03:55.718Z,2640
2017-12-13T10:04:21.212Z,2548
2017-12-13T10:04:46.742Z,2392
2017-12-13T10:05:12.228Z,2324
2017-12-13T10:05:37.751Z,2364
2017-12-13T10:06:03.303Z,2280
2017-12-13T10:06:28.754Z,1968
2017-12-13T10:06:54.209Z,1820
2017-12-13T10:07:19.675Z,1972
2017-12-13T10:07:45.189Z,2000
2017-12-13T10:08:10.697Z,1892
2017-12-13T10:08:36.173Z,1868
2017-12-13T10:09:01.652Z,1812
2017-12-13T10:09:27.133Z,1660
2017-12-13T10:09:52.620Z,1604
2017-12-13T10:10:18.116Z,1764
2017-12-13T10:10:43.679Z,1832
2017-12-13T10:11:09.077Z,1760
2017-12-13T10:11:34.598Z,1712
2017-12-13T10:12:00.060Z,1764
2017-12-13T10:12:25.606Z,1732
2017-12-13T10:12:51.069Z,1728
2017-12-13T10:13:16.621Z,1800
2017-12-13T10:13:42.098Z,1788
2017-12-13T10:14:07.619Z,1604
2017-12-13T10:14:33.095Z,1564
2017-12-13T10:14:58.595Z,1568
2017-12-13T10:15:24.089Z,1580
2017-12-13T10:15:49.605Z,1632
2017-12-13T10:16:15.096Z,1628
2017-12-13T10:16:40.580Z,1540
2017-12-13T10:17:06.069Z,1456
2017-12-13T10:17:31.569Z,1424
2017-12-13T10:17:57.054Z,1296
2017-12-13T10:18:22.543Z,1208
2017-12-13T10:18:48.068Z,1120
2017-12-13T10:19:13.621Z,1000
2017-12-13T10:19:39.130Z,1024
2017-12-13T10:20:04.618Z,1076
2017-12-13T10:20:30.234Z,1140
2017-12-13T10:20:55.681Z,1216
2017-12-13T10:21:21.142Z,1252
2017-12-13T10:21:46.589Z,1312
2017-12-13T10:22:12.073Z,1352
2017-12-13T10:22:37.593Z,1380
2017-12-13T10:23:03.021Z,1332
2017-12-13T10:23:28.507Z,1260
2017-12-13T10:23:53.937Z,1196
2017-12-13T10:24:19.417Z,1176
2017-12-13T10:24:44.855Z,1124
2017-12-13T10:25:10.404Z,1096
2017-12-13T10:25:35.889Z,1096
2017-12-13T10:26:01.390Z,1036
2017-12-13T10:26:26.926Z,1052
2017-12-13T10:26:52.409Z,1140
2017-12-13T10:27:17.862Z,1136
2017-12-13T10:27:43.311Z,1028
2017-12-13T10:28:08.844Z,1048
2017-12-13T10:28:34.330Z,1116
2017-12-13T10:28:59.799Z,1172
2017-12-13T10:29:25.256Z,1096
2017-12-13T10:29:50.771Z,1012
2017-12-13T10:30:16.276Z,1008
2017-12-13T10:30:41.739Z,1024
2017-12-13T10:31:07.195Z,1044
2017-12-13T10:31:32.781Z,916
2017-12-13T10:31:58.453Z,872
2017-12-13T10:32:23.911Z,856
2017-12-13T10:32:49.372Z,968
2017-12-13T10:33:14.894Z,956
2017-12-13T10:34:33.787Z,800
2017-12-13T10:34:59.302Z,768
2017-12-13T10:35:24.808Z,804
2017-12-13T10:35:50.275Z,808
2017-12-13T10:36:15.782Z,760
2017-12-13T10:36:41.274Z,724
2017-12-13T10:37:06.787Z,652
2017-12-13T10:37:32.281Z,668
2017-12-13T10:37:57.752Z,704
2017-12-13T10:38:23.241Z,748
2017-12-13T10:38:48.806Z,740
2017-12-13T10:39:14.314Z,772
2017-12-13T10:39:39.830Z,740
2017-12-13T10:40:05.360Z,736
2017-12-13T10:40:30.836Z,776
2017-12-13T10:40:56.336Z,708
2017-12-13T10:41:21.907Z,728
2017-12-13T10:41:47.370Z,864
2017-12-13T10:42:12.866Z,884
2017-12-13T10:42:38.365Z,932
2017-12-13T10:43:03.858Z,952
2017-12-13T10:43:29.395Z,1040
2017-12-13T10:43:54.923Z,1076
2017-12-13T10:44:20.492Z,1032
2017-12-13T10:44:46.031Z,1044
2017-12-13T10:45:11.550Z,1136
2017-12-13T10:45:37.071Z,1228
2017-12-13T10:46:02.596Z,1256
2017-12-13T10:46:28.004Z,1332
2017-12-13T10:46:53.540Z,1484
2017-12-13T10:47:19.004Z,1480
2017-12-13T10:47:44.495Z,1440
2017-12-13T10:48:10.035Z,1292
2017-12-13T10:48:35.501Z,1452
2017-12-13T10:49:00.949Z,1568
2017-12-13T10:49:26.516Z,1592
2017-12-13T10:49:51.945Z,1468
2017-12-13T10:50:17.387Z,1540
2017-12-13T10:50:42.867Z,1368
2017-12-13T10:51:08.360Z,1472
2017-12-13T10:51:33.838Z,1524
2017-12-13T10:51:59.315Z,1524
2017-12-13T10:52:24.846Z,1436
2017-12-13T10:52:50.362Z,1424
2017-12-13T10:53:15.904Z,1548
2017-12-13T10:53:41.305Z,1388
2017-12-13T10:54:06.916Z,1360
2017-12-13T10:54:32.352Z,1324
2017-12-13T10:54:57.837Z,1344
2017-12-13T10:55:23.321Z,1236
2017-12-13T10:55:48.780Z,1352
2017-12-13T10:56:14.412Z,1336
2017-12-13T10:56:39.891Z,1348
2017-12-13T10:57:05.362Z,1508
2017-12-13T10:57:30.913Z,1424
2017-12-13T10:57:56.405Z,1440
2017-12-13T10:58:21.923Z,1420
2017-12-13T10:58:47.432Z,1368
2017-12-13T10:59:12.893Z,1416
2017-12-13T10:59:38.396Z,1420
2017-12-13T11:00:03.877Z,1284
2017-12-13T11:00:29.390Z,1152
2017-12-13T11:00:54.863Z,1228
2017-12-13T11:01:20.355Z,1360
2017-12-13T11:01:45.933Z,1420
2017-12-13T11:02:11.391Z,1476
2017-12-13T11:02:36.863Z,1432
2017-12-13T11:03:02.353Z,1512
2017-12-13T11:03:27.813Z,1600
2017-12-13T11:03:53.380Z,1784
2017-12-13T11:04:18.812Z,1608
2017-12-13T11:04:44.240Z,1552
2017-12-13T11:05:09.893Z,1512
2017-12-13T11:05:35.451Z,1372
2017-12-13T11:06:00.941Z,1420
2017-12-13T11:06:26.453Z,1352
2017-12-13T11:06:51.920Z,1248
2017-12-13T11:07:17.401Z,1284
2017-12-13T11:08:31.221Z,1196
2017-12-13T11:08:56.694Z,1156
2017-12-13T11:09:22.190Z,1136
2017-12-13T11:09:47.677Z,1076
2017-12-13T11:10:13.184Z,1088
2017-12-13T11:11:33.572Z,1168
2017-12-13T11:11:58.511Z,1288
2017-12-13T11:12:24.138Z,1236
2017-12-13T11:12:49.642Z,1192
2017-12-13T11:13:15.086Z,1112
2017-12-13T11:13:40.703Z,1220
2017-12-13T11:14:06.144Z,1184
2017-12-13T11:14:31.626Z,1096
2017-12-13T11:15:35.737Z,1148
2017-12-13T11:16:02.280Z,1092
2017-12-13T11:16:27.746Z,1040
2017-12-13T11:16:53.233Z,1008
2017-12-13T11:17:18.699Z,1184
2017-12-13T11:17:44.174Z,1108
2017-12-13T11:18:09.610Z,968
2017-12-13T11:18:35.086Z,960
2017-12-13T11:19:00.539Z,944
2017-12-13T11:19:26.014Z,1200
2017-12-13T11:19:51.512Z,1116
2017-12-13T11:20:16.995Z,1092
2017-12-13T11:21:35.909Z,1104
2017-12-13T11:22:01.386Z,1176
2017-12-13T11:22:26.883Z,1120
2017-12-13T11:22:52.337Z,1164
2017-12-13T11:23:17.809Z,1228
2017-12-13T11:23:43.257Z,1176
2017-12-13T11:24:46.858Z,1036
2017-12-13T11:25:12.401Z,1040